createdAt,value
2022-10-08T00:00:46.741Z,100549.00
2022-10-08T00:03:25.239Z,100541.00
2022-10-08T00:06:00.782Z,100537.00
2022-10-08T00:08:38.955Z,100541.00
2022-10-08T00:11:17.477Z,100540.00
2022-10-08T00:13:52.922Z,100544.00
2022-10-08T00:16:31.599Z,100540.00
2022-10-08T00:19:09.572Z,100523.00
2022-10-08T00:21:58.805Z,100537.00
2022-10-08T00:24:33.630Z,100539.00
2022-10-08T00:27:08.536Z,100540.00
2022-10-08T00:29:45.149Z,100534.00
2022-10-08T00:32:20.154Z,100529.00
2022-10-08T00:34:53.642Z,100533.00
2022-10-08T00:37:27.264Z,100530.00
2022-10-08T00:40:00.791Z,100522.00
2022-10-08T00:42:36.082Z,100522.00
2022-10-08T00:45:13.848Z,100510.00
2022-10-08T00:47:49.994Z,100517.00
2022-10-08T00:50:37.144Z,100521.00
2022-10-08T00:53:11.698Z,100509.00
2022-10-08T00:55:45.367Z,100523.00
2022-10-08T00:58:25.822Z,100522.00
2022-10-08T01:01:00.216Z,100525.00
2022-10-08T01:03:33.725Z,100517.00
2022-10-08T01:06:21.610Z,100515.00
2022-10-08T01:09:03.937Z,100496.00
2022-10-08T01:11:49.177Z,100516.00
2022-10-08T01:14:45.490Z,100504.00
2022-10-08T01:17:29.309Z,100506.00
2022-10-08T01:20:35.633Z,100505.00
2022-10-08T01:23:43.092Z,100510.00
2022-10-08T01:26:43.664Z,100502.00
2022-10-08T01:29:24.504Z,100509.00
2022-10-08T01:32:05.403Z,100509.00
2022-10-08T01:34:47.749Z,100506.00
2022-10-08T01:37:28.517Z,100501.00
2022-10-08T01:40:09.952Z,100506.00
2022-10-08T01:42:45.171Z,100485.00
2022-10-08T01:45:34.393Z,100498.00
2022-10-08T01:48:20.521Z,100482.00
2022-10-08T01:50:59.290Z,100506.00
2022-10-08T01:53:41.855Z,100500.00
2022-10-08T01:56:22.343Z,100494.00
2022-10-08T01:59:04.024Z,100493.00
2022-10-08T02:01:56.113Z,100496.00
2022-10-08T02:04:35.322Z,100511.00
2022-10-08T02:07:12.521Z,100495.00
2022-10-08T02:09:51.391Z,100505.00
2022-10-08T02:12:25.306Z,100483.00
2022-10-08T02:15:01.727Z,100495.00
2022-10-08T02:17:51.733Z,100494.00
2022-10-08T02:20:36.139Z,100487.00
2022-10-08T02:23:17.904Z,100494.00
2022-10-08T02:25:55.992Z,100491.00
2022-10-08T02:28:43.653Z,100492.00
2022-10-08T02:31:26.132Z,100489.00
2022-10-08T02:34:11.611Z,100484.00
2022-10-08T02:37:03.357Z,100484.00
2022-10-08T02:39:42.536Z,100481.00
2022-10-08T02:42:22.168Z,100477.00
2022-10-08T02:45:03.244Z,100478.00
2022-10-08T02:47:43.824Z,100475.00
2022-10-08T02:50:27.362Z,100474.00
2022-10-08T02:53:02.927Z,100475.00
2022-10-08T02:55:48.048Z,100467.00
2022-10-08T02:58:22.160Z,100483.00
2022-10-08T03:01:09.319Z,100477.00
2022-10-08T03:03:52.087Z,100485.00
2022-10-08T03:06:30.277Z,100492.00
2022-10-08T03:09:08.341Z,100491.00
2022-10-08T03:11:42.714Z,100502.00
2022-10-08T03:14:20.265Z,100499.00
2022-10-08T03:16:55.598Z,100503.00
2022-10-08T03:19:29.667Z,100470.00
2022-10-08T03:22:12.908Z,100513.00
2022-10-08T03:24:46.735Z,100465.00
2022-10-08T03:27:20.071Z,100487.00
2022-10-08T03:29:57.221Z,100520.00
2022-10-08T03:32:31.025Z,100510.00
2022-10-08T03:35:04.521Z,100513.00
2022-10-08T03:37:39.929Z,100506.00
2022-10-08T03:40:13.319Z,100510.00
2022-10-08T03:42:47.187Z,100510.00
2022-10-08T03:45:20.805Z,100528.00
2022-10-08T03:47:54.379Z,100527.00
2022-10-08T03:50:28.168Z,100538.00
2022-10-08T03:53:03.111Z,100540.00
2022-10-08T03:55:37.536Z,100543.00
2022-10-08T03:58:10.826Z,100536.00
2022-10-08T04:00:44.903Z,100534.00
2022-10-08T04:03:20.220Z,100538.00
2022-10-08T04:05:53.910Z,100540.00
2022-10-08T04:08:28.893Z,100549.00
2022-10-08T04:11:05.069Z,100529.00
2022-10-08T04:13:39.591Z,100546.00
2022-10-08T04:16:16.145Z,100536.00
2022-10-08T04:18:50.403Z,100539.00
2022-10-08T04:21:23.817Z,100541.00
2022-10-08T04:23:58.732Z,100528.00
2022-10-08T04:26:32.166Z,100534.00
2022-10-08T04:29:05.542Z,100533.00
2022-10-08T04:31:39.203Z,100544.00
2022-10-08T04:34:13.252Z,100544.00
2022-10-08T04:36:56.463Z,100539.00
2022-10-08T04:39:33.091Z,100538.00
2022-10-08T04:42:07.979Z,100545.00
2022-10-08T04:44:41.683Z,100533.00
2022-10-08T04:47:15.634Z,100558.00
2022-10-08T04:49:49.551Z,100553.00
2022-10-08T04:52:23.354Z,100558.00
2022-10-08T04:54:58.149Z,100556.00
2022-10-08T04:57:32.837Z,100572.00
2022-10-08T05:00:35.290Z,100575.00
2022-10-08T05:03:09.899Z,100556.00
2022-10-08T05:05:46.429Z,100572.00
2022-10-08T05:08:20.491Z,100572.00
2022-10-08T05:10:56.022Z,100550.00
2022-10-08T05:13:29.826Z,100578.00
2022-10-08T05:16:06.365Z,100587.00
2022-10-08T05:18:42.049Z,100583.00
2022-10-08T05:21:19.061Z,100565.00
2022-10-08T05:23:57.110Z,100577.00
2022-10-08T05:26:57.095Z,100572.00
2022-10-08T05:29:30.439Z,100561.00
2022-10-08T05:32:04.592Z,100576.00
2022-10-08T05:34:37.933Z,100571.00
2022-10-08T05:37:11.620Z,100523.00
2022-10-08T05:39:44.896Z,100576.00
2022-10-08T05:42:21.412Z,100580.00
2022-10-08T05:44:55.539Z,100566.00
2022-10-08T05:47:29.023Z,100593.00
2022-10-08T05:50:02.463Z,100599.00
2022-10-08T05:52:35.970Z,100597.00
2022-10-08T05:55:10.979Z,100595.00
2022-10-08T05:57:45.763Z,100603.00
2022-10-08T06:00:23.037Z,100605.00
2022-10-08T06:02:57.057Z,100601.00
2022-10-08T06:05:31.254Z,100613.00
2022-10-08T06:08:06.518Z,100571.00
2022-10-08T06:10:40.323Z,100609.00
2022-10-08T06:13:16.957Z,100637.00
2022-10-08T06:15:57.937Z,100629.00
2022-10-08T06:18:36.307Z,100636.00
2022-10-08T06:21:13.514Z,100645.00
2022-10-08T06:23:52.613Z,100628.00
2022-10-08T06:26:35.191Z,100657.00
2022-10-08T06:29:16.548Z,100660.00
2022-10-08T06:31:50.316Z,100648.00
2022-10-08T06:34:24.421Z,100670.00
2022-10-08T06:36:58.026Z,100669.00
2022-10-08T06:39:32.951Z,100663.00
2022-10-08T06:42:07.198Z,100672.00
2022-10-08T06:44:42.803Z,100667.00
2022-10-08T06:47:16.755Z,100685.00
2022-10-08T06:49:51.175Z,100685.00
2022-10-08T06:52:25.760Z,100686.00
2022-10-08T06:54:59.555Z,100689.00
2022-10-08T06:57:33.495Z,100697.00
2022-10-08T07:00:11.519Z,100713.00
2022-10-08T07:02:45.746Z,100722.00
2022-10-08T07:05:19.463Z,100711.00
2022-10-08T07:07:53.834Z,100722.00
2022-10-08T07:10:32.383Z,100714.00
2022-10-08T07:13:06.631Z,100729.00
2022-10-08T07:15:43.086Z,100737.00
2022-10-08T07:18:17.047Z,100725.00
2022-10-08T07:20:56.929Z,100740.00
2022-10-08T07:23:30.847Z,100755.00
2022-10-08T07:26:10.025Z,100727.00
2022-10-08T07:28:51.248Z,100760.00
2022-10-08T07:31:30.191Z,100764.00
2022-10-08T07:34:06.394Z,100757.00
2022-10-08T07:36:42.073Z,100770.00
2022-10-08T07:39:19.866Z,100765.00
2022-10-08T07:41:53.667Z,100775.00
2022-10-08T07:44:27.789Z,100754.00
2022-10-08T07:47:03.214Z,100773.00
2022-10-08T07:49:36.671Z,100741.00
2022-10-08T07:52:10.675Z,100776.00
2022-10-08T07:54:45.873Z,100752.00
2022-10-08T07:57:20.473Z,100784.00
2022-10-08T07:59:54.104Z,100762.00
2022-10-08T08:02:29.299Z,100785.00
2022-10-08T08:05:02.803Z,100800.00
2022-10-08T08:07:36.252Z,100805.00
2022-10-08T08:10:10.384Z,100799.00
2022-10-08T08:12:46.161Z,100814.00
2022-10-08T08:15:21.085Z,100798.00
2022-10-08T08:17:56.081Z,100827.00
2022-10-08T08:20:29.684Z,100828.00
2022-10-08T08:23:03.573Z,100824.00
2022-10-08T08:25:37.154Z,100827.00
2022-10-08T08:28:10.995Z,100831.00
2022-10-08T08:30:44.558Z,100828.00
2022-10-08T08:33:20.239Z,100835.00
2022-10-08T08:35:55.885Z,100837.00
2022-10-08T08:38:29.415Z,100844.00
2022-10-08T08:41:20.820Z,100847.00
2022-10-08T08:44:00.503Z,100852.00
2022-10-08T08:46:41.270Z,100852.00
2022-10-08T08:49:25.719Z,100852.00
2022-10-08T08:52:02.940Z,100866.00
2022-10-08T08:54:37.509Z,100858.00
2022-10-08T08:57:33.263Z,100870.00
2022-10-08T09:00:16.431Z,100877.00
2022-10-08T09:03:02.217Z,100860.00
2022-10-08T09:05:46.034Z,100874.00
2022-10-08T09:08:25.815Z,100880.00
2022-10-08T09:11:02.774Z,100865.00
2022-10-08T09:13:49.131Z,100868.00
2022-10-08T09:16:22.881Z,100879.00
2022-10-08T09:18:56.715Z,100895.00
2022-10-08T09:21:37.684Z,100894.00
2022-10-08T09:24:12.939Z,100902.00
2022-10-08T09:26:46.914Z,100886.00
2022-10-08T09:29:34.723Z,100890.00
2022-10-08T09:32:16.913Z,100884.00
2022-10-08T09:34:51.204Z,100890.00
2022-10-08T09:37:27.436Z,100897.00
2022-10-08T09:40:22.404Z,100903.00
2022-10-08T09:43:14.673Z,100905.00
2022-10-08T09:45:50.748Z,100904.00
2022-10-08T09:48:27.991Z,100905.00
2022-10-08T09:51:05.958Z,100892.00
2022-10-08T09:53:46.128Z,100912.00
2022-10-08T09:56:28.020Z,100919.00
2022-10-08T09:59:07.149Z,100918.00
2022-10-08T10:01:49.426Z,100920.00
2022-10-08T10:04:35.552Z,100933.00
2022-10-08T10:07:10.037Z,100937.00
2022-10-08T10:09:49.031Z,100933.00
2022-10-08T10:12:58.606Z,100924.00
2022-10-08T10:15:39.577Z,100934.00
2022-10-08T10:18:17.892Z,100935.00
2022-10-08T10:20:58.687Z,100922.00
2022-10-08T10:23:43.391Z,100936.00
2022-10-08T10:26:25.143Z,100924.00
2022-10-08T10:29:06.010Z,100936.00
2022-10-08T10:31:46.433Z,100936.00
2022-10-08T10:34:26.876Z,100953.00
2022-10-08T10:37:05.751Z,100959.00
2022-10-08T10:39:50.425Z,100953.00
2022-10-08T10:42:35.260Z,100955.00
2022-10-08T10:45:22.889Z,100955.00
2022-10-08T10:47:56.186Z,100955.00
2022-10-08T10:50:41.746Z,100953.00
2022-10-08T10:53:28.967Z,100949.00
2022-10-08T10:56:15.134Z,100937.00
2022-10-08T10:59:31.593Z,100960.00
2022-10-08T11:02:21.704Z,100958.00
2022-10-08T11:05:09.632Z,100954.00
2022-10-08T11:08:22.557Z,100957.00
2022-10-08T11:11:11.656Z,100923.00
2022-10-08T11:14:04.015Z,100969.00
2022-10-08T11:17:05.470Z,100962.00
2022-10-08T11:19:55.560Z,100973.00
2022-10-08T11:22:41.535Z,100966.00
2022-10-08T11:25:40.409Z,100974.00
2022-10-08T11:28:47.369Z,100967.00
2022-10-08T11:31:38.576Z,100964.00
2022-10-08T11:34:33.287Z,100972.00
2022-10-08T11:37:22.778Z,100970.00
2022-10-08T11:40:08.451Z,100978.00
2022-10-08T11:42:50.891Z,100969.00
2022-10-08T11:45:35.154Z,100970.00
2022-10-08T11:48:35.964Z,100973.00
2022-10-08T11:51:37.762Z,100972.00
2022-10-08T11:54:17.473Z,100966.00
2022-10-08T11:57:11.288Z,100951.00
2022-10-08T11:59:47.356Z,100965.00
2022-10-08T12:02:27.887Z,100967.00
2022-10-08T12:05:36.161Z,100969.00
2022-10-08T12:08:10.250Z,100971.00
2022-10-08T12:10:44.537Z,100977.00
2022-10-08T12:13:32.910Z,100970.00
2022-10-08T12:16:07.140Z,100966.00
2022-10-08T12:18:48.969Z,100980.00
2022-10-08T12:21:52.038Z,100976.00
2022-10-08T12:24:58.984Z,100980.00
2022-10-08T12:27:38.037Z,100985.00
2022-10-08T12:30:14.426Z,100995.00
2022-10-08T12:32:58.177Z,100988.00
2022-10-08T12:35:36.767Z,100985.00
2022-10-08T12:38:31.873Z,100976.00
2022-10-08T12:41:20.869Z,100985.00
2022-10-08T12:44:04.774Z,100978.00
2022-10-08T12:47:02.220Z,100982.00
2022-10-08T12:49:46.730Z,100983.00
2022-10-08T12:52:21.762Z,100984.00
2022-10-08T12:55:01.699Z,100990.00
2022-10-08T12:57:42.304Z,100987.00
2022-10-08T13:00:24.769Z,100981.00
2022-10-08T13:03:03.500Z,100978.00
2022-10-08T13:05:40.545Z,100989.00
2022-10-08T13:08:30.363Z,100994.00
2022-10-08T13:11:10.922Z,100992.00
2022-10-08T13:13:51.936Z,100994.00
2022-10-08T13:16:28.587Z,101007.00
2022-10-08T13:19:02.428Z,101000.00
2022-10-08T13:21:39.244Z,101000.00
2022-10-08T13:24:39.347Z,101009.00
2022-10-08T13:27:28.970Z,101014.00
2022-10-08T13:30:28.772Z,101020.00
2022-10-08T13:33:18.898Z,101019.00
2022-10-08T13:35:56.646Z,101025.00
2022-10-08T13:38:34.893Z,101017.00
2022-10-08T13:41:09.731Z,101024.00
2022-10-08T13:43:45.285Z,101025.00
2022-10-08T13:46:19.260Z,101035.00
2022-10-08T13:48:52.846Z,101024.00
2022-10-08T13:51:26.233Z,101032.00
2022-10-08T13:54:00.102Z,101025.00
2022-10-08T13:56:35.378Z,101033.00
2022-10-08T13:59:13.338Z,101021.00
2022-10-08T14:01:48.759Z,101019.00
2022-10-08T14:04:22.393Z,101036.00
2022-10-08T14:07:01.816Z,101036.00
2022-10-08T14:09:35.363Z,101036.00
2022-10-08T14:12:11.768Z,101013.00
2022-10-08T14:14:46.979Z,101034.00
2022-10-08T14:17:20.642Z,101010.00
2022-10-08T14:19:55.543Z,101030.00
2022-10-08T14:22:28.925Z,101028.00
2022-10-08T14:25:02.392Z,101037.00
2022-10-08T14:27:35.922Z,101038.00
2022-10-08T14:30:33.819Z,101034.00
2022-10-08T14:33:11.591Z,101038.00
2022-10-08T14:35:45.276Z,101052.00
2022-10-08T14:38:18.830Z,101053.00
2022-10-08T14:40:52.231Z,101049.00
2022-10-08T14:43:27.665Z,101044.00
2022-10-08T14:46:02.817Z,101041.00
2022-10-08T14:48:36.855Z,101052.00
2022-10-08T14:51:10.550Z,101037.00
2022-10-08T14:53:44.018Z,101049.00
2022-10-08T14:56:17.500Z,101057.00
2022-10-08T14:58:50.873Z,101045.00
2022-10-08T15:01:26.250Z,101050.00
2022-10-08T15:04:00.090Z,101062.00
2022-10-08T15:06:33.468Z,101057.00
2022-10-08T15:09:06.814Z,101064.00
2022-10-08T15:11:40.444Z,101058.00
2022-10-08T15:14:14.359Z,101062.00
2022-10-08T15:16:49.111Z,101059.00
2022-10-08T15:19:24.054Z,101059.00
2022-10-08T15:21:57.717Z,101062.00
2022-10-08T15:24:31.112Z,101060.00
2022-10-08T15:27:04.556Z,101057.00
2022-10-08T15:29:37.985Z,101052.00
2022-10-08T15:32:13.282Z,101051.00
2022-10-08T15:34:46.969Z,101060.00
2022-10-08T15:37:20.343Z,101070.00
2022-10-08T15:39:53.599Z,101057.00
2022-10-08T15:42:26.944Z,101067.00
2022-10-08T15:45:00.469Z,101067.00
2022-10-08T15:47:35.184Z,101065.00
2022-10-08T15:50:11.097Z,101069.00
2022-10-08T15:52:46.437Z,101074.00
2022-10-08T15:55:20.265Z,101075.00
2022-10-08T15:57:53.829Z,101083.00
2022-10-08T16:00:27.362Z,101082.00
2022-10-08T16:03:02.258Z,101090.00
2022-10-08T16:05:35.736Z,101089.00
2022-10-08T16:08:09.739Z,101087.00
2022-10-08T16:10:43.297Z,101102.00
2022-10-08T16:13:16.533Z,101100.00
2022-10-08T16:15:50.265Z,101091.00
2022-10-08T16:18:25.467Z,101099.00
2022-10-08T16:21:04.125Z,101108.00
2022-10-08T16:23:38.820Z,101100.00
2022-10-08T16:26:20.915Z,101110.00
2022-10-08T16:28:58.631Z,101114.00
2022-10-08T16:31:35.396Z,101123.00
2022-10-08T16:34:14.305Z,101126.00
2022-10-08T16:36:49.315Z,101134.00
2022-10-08T16:39:25.123Z,101136.00
2022-10-08T16:41:58.841Z,101135.00
2022-10-08T16:44:32.401Z,101146.00
2022-10-08T16:47:06.377Z,101122.00
2022-10-08T16:49:41.530Z,101152.00
2022-10-08T16:52:15.085Z,101152.00
2022-10-08T16:54:54.597Z,101147.00
2022-10-08T16:57:28.867Z,101169.00
2022-10-08T17:00:03.027Z,101167.00
2022-10-08T17:02:36.444Z,101164.00
2022-10-08T17:05:12.325Z,101179.00
2022-10-08T17:07:46.188Z,101181.00
2022-10-08T17:10:20.216Z,101183.00
2022-10-08T17:12:54.344Z,101180.00
2022-10-08T17:15:27.961Z,101184.00
2022-10-08T17:18:02.144Z,101169.00
2022-10-08T17:20:37.708Z,101184.00
2022-10-08T17:23:14.076Z,101195.00
2022-10-08T17:25:47.468Z,101195.00
2022-10-08T17:28:21.169Z,101206.00
2022-10-08T17:30:54.727Z,101205.00
2022-10-08T17:33:35.464Z,101222.00
2022-10-08T17:36:14.526Z,101225.00
2022-10-08T17:38:51.634Z,101231.00
2022-10-08T17:41:33.044Z,101233.00
2022-10-08T17:44:10.451Z,101234.00
2022-10-08T17:46:47.312Z,101232.00
2022-10-08T17:49:21.554Z,101243.00
2022-10-08T17:51:56.542Z,101244.00
2022-10-08T17:54:30.683Z,101244.00
2022-10-08T17:57:04.434Z,101244.00
2022-10-08T17:59:37.749Z,101250.00
2022-10-08T18:02:11.390Z,101255.00
2022-10-08T18:04:44.902Z,101256.00
2022-10-08T18:07:19.920Z,101260.00
2022-10-08T18:09:53.433Z,101266.00
2022-10-08T18:12:27.325Z,101258.00
2022-10-08T18:15:00.639Z,101265.00
2022-10-08T18:17:34.652Z,101264.00
2022-10-08T18:20:09.075Z,101273.00
2022-10-08T18:22:43.843Z,101270.00
2022-10-08T18:25:17.806Z,101278.00
2022-10-08T18:27:51.423Z,101274.00
2022-10-08T18:30:24.883Z,101280.00
2022-10-08T18:32:58.326Z,101281.00
2022-10-08T18:35:31.581Z,101288.00
2022-10-08T18:38:06.163Z,101284.00
2022-10-08T18:40:39.927Z,101278.00
2022-10-08T18:43:14.631Z,101289.00
2022-10-08T18:45:48.231Z,101288.00
2022-10-08T18:48:21.581Z,101295.00
2022-10-08T18:50:55.431Z,101303.00
2022-10-08T18:53:33.286Z,101299.00
2022-10-08T18:56:11.079Z,101303.00
2022-10-08T18:58:46.894Z,101300.00
2022-10-08T19:01:23.663Z,101299.00
2022-10-08T19:04:00.487Z,101310.00
2022-10-08T19:06:38.876Z,101317.00
2022-10-08T19:09:15.110Z,101313.00
2022-10-08T19:11:52.589Z,101320.00
2022-10-08T19:14:26.117Z,101312.00
2022-10-08T19:17:00.225Z,101326.00
2022-10-08T19:19:33.451Z,101324.00
2022-10-08T19:22:06.725Z,101324.00
2022-10-08T19:24:41.567Z,101329.00
2022-10-08T19:27:14.999Z,101331.00
2022-10-08T19:29:48.742Z,101336.00
2022-10-08T19:32:22.087Z,101321.00
2022-10-08T19:34:55.311Z,101337.00
2022-10-08T19:37:28.557Z,101328.00
2022-10-08T19:40:03.527Z,101334.00
2022-10-08T19:42:37.375Z,101352.00
2022-10-08T19:45:12.566Z,101350.00
2022-10-08T19:47:45.953Z,101340.00
2022-10-08T19:50:19.642Z,101340.00
2022-10-08T19:52:53.197Z,101345.00
2022-10-08T19:55:29.412Z,101349.00
2022-10-08T19:58:02.986Z,101347.00
2022-10-08T20:00:36.333Z,101358.00
2022-10-08T20:03:09.826Z,101360.00
2022-10-08T20:05:43.158Z,101359.00
2022-10-08T20:08:16.517Z,101363.00
2022-10-08T20:10:51.207Z,101355.00
2022-10-08T20:13:25.149Z,101365.00
2022-10-08T20:16:04.225Z,101372.00
2022-10-08T20:18:38.558Z,101373.00
2022-10-08T20:21:13.689Z,101375.00
2022-10-08T20:23:47.487Z,101368.00
2022-10-08T20:26:24.306Z,101377.00
2022-10-08T20:29:03.376Z,101375.00
2022-10-08T20:31:39.875Z,101374.00
2022-10-08T20:34:17.692Z,101383.00
2022-10-08T20:36:52.981Z,101381.00
2022-10-08T20:39:26.419Z,101375.00
2022-10-08T20:42:01.814Z,101378.00
2022-10-08T20:44:35.358Z,101364.00
2022-10-08T20:47:08.687Z,101379.00
2022-10-08T20:49:42.402Z,101368.00
2022-10-08T20:52:15.907Z,101381.00
2022-10-08T20:54:49.540Z,101383.00
2022-10-08T20:57:24.483Z,101386.00
2022-10-08T20:59:58.275Z,101382.00
2022-10-08T21:02:31.718Z,101384.00
2022-10-08T21:05:06.709Z,101387.00
2022-10-08T21:07:40.436Z,101379.00
2022-10-08T21:10:14.461Z,101379.00
2022-10-08T21:12:50.126Z,101380.00
2022-10-08T21:15:27.803Z,101376.00
2022-10-08T21:18:01.029Z,101391.00
2022-10-08T21:20:37.615Z,101395.00
2022-10-08T21:23:11.257Z,101388.00
2022-10-08T21:25:45.148Z,101395.00
2022-10-08T21:28:20.473Z,101384.00
2022-10-08T21:30:59.577Z,101391.00
2022-10-08T21:33:37.434Z,101389.00
2022-10-08T21:36:15.044Z,101385.00
2022-10-08T21:38:48.568Z,101393.00
2022-10-08T21:41:25.762Z,101398.00
2022-10-08T21:44:03.276Z,101399.00
2022-10-08T21:46:41.227Z,101400.00
2022-10-08T21:49:18.236Z,101386.00
2022-10-08T21:51:52.437Z,101381.00
2022-10-08T21:54:26.364Z,101394.00
2022-10-08T21:57:00.051Z,101387.00
2022-10-08T21:59:35.216Z,101398.00
2022-10-08T22:02:08.978Z,101392.00
2022-10-08T22:04:42.634Z,101394.00
2022-10-08T22:07:15.910Z,101397.00
2022-10-08T22:09:50.026Z,101396.00
2022-10-08T22:12:25.449Z,101375.00
2022-10-08T22:15:00.134Z,101398.00
2022-10-08T22:17:34.479Z,101401.00
2022-10-08T22:20:09.323Z,101396.00
2022-10-08T22:22:42.596Z,101403.00
2022-10-08T22:25:18.076Z,101410.00
2022-10-08T22:27:53.752Z,101389.00
2022-10-08T22:30:29.626Z,101401.00
2022-10-08T22:33:04.194Z,101406.00
2022-10-08T22:35:37.783Z,101411.00
2022-10-08T22:38:12.529Z,101401.00
2022-10-08T22:40:47.144Z,101383.00
2022-10-08T22:43:20.809Z,101399.00
2022-10-08T22:45:55.997Z,101394.00
2022-10-08T22:48:29.961Z,101397.00
2022-10-08T22:51:05.936Z,101391.00
2022-10-08T22:53:39.777Z,101396.00
2022-10-08T22:56:16.982Z,101393.00
2022-10-08T22:58:52.546Z,101384.00
2022-10-08T23:01:30.798Z,101391.00
2022-10-08T23:04:08.455Z,101392.00
2022-10-08T23:06:42.158Z,101376.00
2022-10-08T23:09:16.078Z,101402.00
2022-10-08T23:11:50.533Z,101396.00
2022-10-08T23:14:23.918Z,101383.00
2022-10-08T23:16:59.555Z,101392.00
2022-10-08T23:19:33.744Z,101352.00
2022-10-08T23:22:07.083Z,101381.00
2022-10-08T23:24:40.944Z,101363.00
2022-10-08T23:27:14.467Z,101379.00
2022-10-08T23:29:48.206Z,101372.00
2022-10-08T23:32:24.317Z,101384.00
2022-10-08T23:34:58.373Z,101380.00
2022-10-08T23:37:31.905Z,101376.00
2022-10-08T23:40:09.102Z,101368.00
2022-10-08T23:42:42.928Z,101375.00
2022-10-08T23:45:16.985Z,101376.00
2022-10-08T23:47:53.075Z,101377.00
2022-10-08T23:50:28.531Z,101355.00
2022-10-08T23:53:02.594Z,101376.00
2022-10-08T23:55:36.267Z,101376.00
2022-10-08T23:58:10.845Z,101371.00
